Time;durP1;ratioP1;P1;durP2;ratioP2;P2;SDS_P1;SDS_P2;PMS_P1;PMS_P2;Temp;Humidity;BMP_temperature;BMP_pressure;BME280_temperature;BME280_humidity;BME280_pressure;Samples;Min_cycle;Max_cycle;Signal;HPM_P1;HPM_P2
2022/06/15 00:00:22;;;;;;;5.00;2.40;;;;;;;9.63;77.87;97179.60;106815;1275;175001;-79
2022/06/15 00:03:07;;;;;;;4.70;1.60;;;;;;;9.61;78.34;97177.73;106734;1274;134610;-78
2022/06/15 00:05:38;;;;;;;6.70;2.20;;;;;;;9.81;78.11;97176.70;106966;1274;85019;-79
2022/06/15 00:08:10;;;;;;;3.00;1.80;;;;;;;10.00;77.91;97179.42;106857;1274;99671;-79
2022/06/15 00:10:42;;;;;;;6.20;2.00;;;;;;;10.04;78.10;97182.23;106890;1274;149101;-79
2022/06/15 00:13:13;;;;;;;2.70;1.60;;;;;;;10.06;78.33;97183.36;106934;1273;88678;-79
2022/06/15 00:15:49;;;;;;;8.00;2.00;;;;;;;10.14;78.45;97184.66;107202;1274;128659;-79
2022/06/15 00:18:20;;;;;;;5.30;2.00;;;;;;;10.21;78.65;97186.11;107256;1274;101168;-80
2022/06/15 00:20:52;;;;;;;5.30;2.30;;;;;;;10.22;78.73;97189.20;107124;1274;110626;-79
2022/06/15 00:23:23;;;;;;;2.70;1.80;;;;;;;10.18;78.62;97189.27;107160;1274;86822;-80
2022/06/15 00:25:54;;;;;;;5.50;1.90;;;;;;;10.17;78.77;97187.73;107177;1274;129032;-79
2022/06/15 00:28:26;;;;;;;2.30;1.80;;;;;;;10.18;78.60;97189.28;107251;1274;104806;-79
2022/06/15 00:30:58;;;;;;;2.10;1.70;;;;;;;10.30;78.40;97189.88;107095;1273;130410;-79
2022/06/15 00:33:30;;;;;;;4.30;1.80;;;;;;;10.41;78.13;97191.70;106923;1274;108904;-79
2022/06/15 00:36:04;;;;;;;6.00;1.90;;;;;;;10.52;77.63;97192.61;106995;1274;133101;-79
2022/06/15 00:38:37;;;;;;;4.30;2.10;;;;;;;10.61;77.68;97189.98;107433;1273;91159;-79
2022/06/15 00:41:11;;;;;;;3.60;1.70;;;;;;;10.69;77.81;97191.23;107157;1274;147900;-79
2022/06/15 00:43:44;;;;;;;4.10;2.10;;;;;;;10.73;77.43;97189.46;106995;1274;103648;-79
2022/06/15 00:46:22;;;;;;;3.90;2.20;;;;;;;10.81;76.90;97188.02;107148;1274;116342;-79
2022/06/15 00:48:56;;;;;;;5.50;2.20;;;;;;;10.89;76.81;97190.47;107230;1274;94759;-79
2022/06/15 00:51:29;;;;;;;3.30;2.10;;;;;;;10.92;76.67;97188.81;107104;1274;115874;-79
2022/06/15 00:54:02;;;;;;;2.70;1.70;;;;;;;10.96;76.66;97193.37;107240;1274;102682;-79
2022/06/15 00:56:36;;;;;;;5.00;1.80;;;;;;;10.91;76.64;97187.12;107432;1274;92388;-79
2022/06/15 00:59:14;;;;;;;2.60;1.50;;;;;;;10.77;76.74;97187.28;107231;1274;133503;-79
2022/06/15 01:01:45;;;;;;;3.40;2.00;;;;;;;10.69;76.83;97184.45;107227;1274;86043;-79
2022/06/15 01:04:19;;;;;;;3.60;1.60;;;;;;;10.66;76.83;97188.43;107245;1274;71804;-79
2022/06/15 01:06:58;;;;;;;4.40;1.90;;;;;;;10.63;76.66;97186.69;107358;1274;35588;-79
2022/06/15 01:09:34;;;;;;;3.30;1.60;;;;;;;10.60;76.65;97187.21;107151;1274;83603;-79
2022/06/15 01:12:16;;;;;;;5.40;2.00;;;;;;;10.55;76.51;97191.55;107394;1274;106220;-79
2022/06/15 01:15:15;;;;;;;5.00;1.50;;;;;;;10.49;76.46;97187.73;107094;1274;105894;-79
2022/06/15 01:18:01;;;;;;;2.60;1.40;;;;;;;10.42;76.30;97188.15;107265;1274;54574;-79
2022/06/15 01:20:58;;;;;;;3.20;1.50;;;;;;;10.35;76.29;97194.60;107187;1274;88617;-79
2022/06/15 01:23:55;;;;;;;4.00;1.70;;;;;;;10.30;76.36;97194.48;107183;1274;41055;-79
2022/06/15 01:26:55;;;;;;;5.40;1.70;;;;;;;10.20;76.44;97190.52;107014;1274;155315;-79
2022/06/15 01:29:49;;;;;;;5.50;1.50;;;;;;;10.16;76.63;97190.66;107279;1274;36081;-80
2022/06/15 01:32:25;;;;;;;3.30;1.50;;;;;;;10.11;76.81;97191.21;107105;1274;112446;-80
2022/06/15 01:35:07;;;;;;;2.70;1.70;;;;;;;10.11;76.99;97189.40;107276;1274;40716;-80
2022/06/15 01:37:49;;;;;;;3.60;1.70;;;;;;;10.14;77.06;97185.61;105485;1274;2038202;-79
2022/06/15 01:40:29;;;;;;;3.00;1.70;;;;;;;10.03;76.67;97179.89;107181;1274;49807;-80
2022/06/15 01:43:05;;;;;;;4.40;2.20;;;;;;;9.74;76.88;97182.39;107120;1274;106845;-80
2022/06/15 01:45:39;;;;;;;3.50;1.60;;;;;;;9.46;77.27;97184.10;105860;1274;2036639;-80
2022/06/15 01:48:14;;;;;;;4.50;2.10;;;;;;;9.30;77.44;97181.48;106938;1274;149189;-79
2022/06/15 01:50:50;;;;;;;2.90;1.50;;;;;;;9.27;77.69;97179.02;107318;1274;63741;-80
2022/06/15 01:53:26;;;;;;;3.10;1.70;;;;;;;9.28;77.87;97178.33;107232;1274;83892;-80
2022/06/15 01:56:03;;;;;;;5.10;1.90;;;;;;;9.20;77.78;97176.75;107262;1274;37980;-80
2022/06/15 01:58:37;;;;;;;4.50;2.00;;;;;;;9.07;78.20;97178.05;107339;1274;97065;-80
2022/06/15 02:01:14;;;;;;;4.10;1.80;;;;;;;9.00;78.54;97178.67;107210;1274;96440;-80
2022/06/15 02:03:52;;;;;;;3.20;1.70;;;;;;;8.92;78.81;97178.31;107098;1274;94265;-80
2022/06/15 02:06:33;;;;;;;4.70;1.50;;;;;;;8.82;78.96;97176.63;107322;1274;39408;-80
2022/06/15 02:09:13;;;;;;;4.70;1.70;;;;;;;8.71;78.95;97181.15;107334;1274;76295;-80
2022/06/15 02:11:45;;;;;;;5.40;2.20;;;;;;;8.62;79.42;97183.72;107333;1274;34122;-79
2022/06/15 02:14:20;;;;;;;3.30;1.20;;;;;;;8.51;79.61;97182.77;107214;1274;96354;-80
2022/06/15 02:16:56;;;;;;;6.00;1.90;;;;;;;8.40;79.70;97184.25;107335;1274;33367;-79
2022/06/15 02:19:32;;;;;;;2.60;1.50;;;;;;;8.32;79.85;97183.22;107100;1274;121896;-80
2022/06/15 02:22:09;;;;;;;6.60;1.50;;;;;;;8.36;80.20;97177.92;107358;1274;49844;-79
2022/06/15 02:24:42;;;;;;;3.30;1.70;;;;;;;8.32;80.07;97180.74;107196;1274;136759;-79
2022/06/15 02:27:15;;;;;;;3.10;1.90;;;;;;;8.23;80.18;97181.15;107116;1274;95376;-79
2022/06/15 02:29:51;;;;;;;3.90;1.90;;;;;;;8.18;80.55;97177.41;107230;1274;106498;-80
2022/06/15 02:32:25;;;;;;;3.00;1.80;;;;;;;8.10;80.93;97178.48;106900;1274;120725;-80
2022/06/15 02:34:56;;;;;;;3.20;1.60;;;;;;;8.05;81.39;97176.64;107348;1274;35206;-80
2022/06/15 02:37:27;;;;;;;5.70;1.70;;;;;;;8.03;81.52;97182.05;107088;1274;145540;-79
2022/06/15 02:39:59;;;;;;;4.80;1.70;;;;;;;8.02;81.86;97180.77;107318;1274;34778;-80
2022/06/15 02:42:33;;;;;;;2.90;1.50;;;;;;;8.19;82.34;97179.52;106886;1274;134510;-80
2022/06/15 02:45:09;;;;;;;2.80;1.60;;;;;;;8.38;82.13;97180.80;107356;1274;90698;-80
2022/06/15 02:47:42;;;;;;;3.90;1.50;;;;;;;8.50;81.82;97183.23;106099;1274;1313472;-79
2022/06/15 02:50:18;;;;;;;4.50;1.60;;;;;;;8.60;81.53;97185.02;107296;1274;38884;-79
2022/06/15 02:52:58;;;;;;;3.40;1.60;;;;;;;8.65;81.05;97186.34;107007;1274;136761;-79
2022/06/15 02:55:30;;;;;;;5.10;2.10;;;;;;;8.50;80.95;97185.63;107239;1274;118908;-80
2022/06/15 02:58:09;;;;;;;5.10;2.10;;;;;;;8.34;81.28;97185.08;107178;1274;105372;-79
2022/06/15 03:00:41;;;;;;;4.50;1.80;;;;;;;8.25;81.66;97186.88;107214;1274;70673;-79
2022/06/15 03:03:12;;;;;;;7.90;2.00;;;;;;;8.22;82.08;97189.02;107009;1274;126507;-79
2022/06/15 03:05:47;;;;;;;2.70;1.80;;;;;;;8.22;82.32;97184.70;107319;1274;32588;-79
2022/06/15 03:08:20;;;;;;;3.70;1.80;;;;;;;8.30;82.58;97185.30;107208;1274;86066;-79
2022/06/15 03:10:54;;;;;;;5.40;2.00;;;;;;;8.36;82.47;97191.09;105813;1274;2053138;-79
2022/06/15 03:13:27;;;;;;;4.20;2.10;;;;;;;8.42;82.59;97190.45;107163;1274;147678;-80
2022/06/15 03:16:01;;;;;;;2.90;1.80;;;;;;;8.51;82.49;97190.23;107022;1274;136108;-79
2022/06/15 03:18:33;;;;;;;6.30;2.20;;;;;;;8.61;82.54;97194.29;107372;1274;35766;-80
2022/06/15 03:21:05;;;;;;;3.10;1.90;;;;;;;8.63;82.30;97196.68;105899;1274;1825636;-79
2022/06/15 03:23:37;;;;;;;7.80;2.50;;;;;;;8.70;82.36;97196.31;107443;1272;31144;-77
2022/06/15 03:26:09;;;;;;;5.80;2.40;;;;;;;8.83;82.26;97199.66;105632;1274;2125623;-77
2022/06/15 03:28:40;;;;;;;4.20;2.00;;;;;;;9.01;81.99;97195.98;107116;1274;139347;-79
2022/06/15 03:31:11;;;;;;;2.60;1.60;;;;;;;9.14;81.85;97196.52;107070;1274;118740;-79
2022/06/15 03:33:43;;;;;;;4.90;1.90;;;;;;;9.23;81.62;97198.46;107133;1274;103548;-79
2022/06/15 03:36:14;;;;;;;3.40;1.80;;;;;;;9.23;81.49;97196.45;107291;1274;52014;-79
2022/06/15 03:38:45;;;;;;;4.40;2.30;;;;;;;9.15;81.62;97199.84;107106;1274;114719;-79
2022/06/15 03:41:18;;;;;;;4.30;2.70;;;;;;;9.11;82.02;97197.54;107291;1274;39832;-80
2022/06/15 03:43:50;;;;;;;6.90;2.60;;;;;;;9.22;82.36;97200.16;105716;1274;1882860;-79
2022/06/15 03:46:23;;;;;;;7.80;2.70;;;;;;;9.40;82.36;97202.71;107313;1274;37156;-80
2022/06/15 03:48:54;;;;;;;2.70;1.90;;;;;;;9.61;82.28;97198.32;107296;1274;38861;-79
2022/06/15 03:51:25;;;;;;;6.00;1.80;;;;;;;9.82;81.85;97201.13;107116;1274;141003;-80
2022/06/15 03:53:57;;;;;;;6.30;1.90;;;;;;;10.04;81.40;97200.36;105740;1274;2019129;-79
2022/06/15 03:59:25;;;;;;;4.20;2.10;;;;;;;10.48;81.53;97200.34;104092;1308;545329;-80
2022/06/15 04:01:57;;;;;;;5.80;2.50;;;;;;;10.65;81.20;97203.92;107239;1270;160893;-80
2022/06/15 04:04:28;;;;;;;5.20;2.60;;;;;;;10.86;80.68;97200.38;107528;1271;40871;-79
2022/06/15 04:07:00;;;;;;;6.10;2.60;;;;;;;11.09;80.28;97198.00;107183;1270;100723;-80
2022/06/15 04:09:31;;;;;;;4.10;2.50;;;;;;;11.33;80.18;97196.70;107574;1270;34000;-80
2022/06/15 04:12:08;;;;;;;5.90;2.50;;;;;;;11.57;79.15;97197.23;107281;1270;220300;-79
2022/06/15 04:14:39;;;;;;;3.20;2.10;;;;;;;11.81;78.62;97192.23;107611;1267;32255;-78
2022/06/15 04:17:12;;;;;;;5.70;2.50;;;;;;;12.05;78.41;97188.79;107552;1266;96195;-79
2022/06/15 04:19:43;;;;;;;4.50;2.10;;;;;;;12.31;78.10;97186.73;107572;1267;40382;-79
2022/06/15 04:22:14;;;;;;;4.70;2.10;;;;;;;12.54;77.00;97188.36;105949;1267;2037927;-79
2022/06/15 04:24:45;;;;;;;4.80;2.00;;;;;;;12.77;76.69;97189.53;107704;1267;38284;-79
2022/06/15 04:27:17;;;;;;;3.00;1.90;;;;;;;12.95;76.32;97189.49;107483;1267;101074;-79
2022/06/15 04:29:48;;;;;;;3.50;2.20;;;;;;;13.12;75.98;97186.33;107720;1267;63366;-79
2022/06/15 04:32:19;;;;;;;3.40;2.00;;;;;;;13.16;74.73;97187.40;107471;1267;117982;-79
2022/06/15 04:34:52;;;;;;;3.60;2.30;;;;;;;13.09;73.83;97184.53;107366;1268;193378;-79
2022/06/15 04:37:23;;;;;;;5.00;2.20;;;;;;;13.09;73.34;97184.33;107604;1268;39416;-79
2022/06/15 04:39:54;;;;;;;6.00;2.30;;;;;;;13.07;72.85;97185.92;107217;1267;144440;-79
2022/06/15 04:42:26;;;;;;;4.50;1.90;;;;;;;13.03;72.77;97187.29;107562;1267;135512;-79
2022/06/15 04:44:57;;;;;;;4.90;1.90;;;;;;;13.14;73.06;97184.55;107434;1267;145328;-79
2022/06/15 04:47:28;;;;;;;6.20;2.20;;;;;;;13.28;72.59;97180.13;107696;1267;39115;-79
2022/06/15 04:49:59;;;;;;;5.80;2.10;;;;;;;13.40;72.31;97179.59;107100;1268;163733;-79
2022/06/15 04:52:31;;;;;;;4.90;2.30;;;;;;;13.57;72.30;97174.88;107500;1267;125511;-79
2022/06/15 04:55:03;;;;;;;4.80;2.30;;;;;;;13.78;71.74;97173.31;107765;1267;35752;-79
2022/06/15 04:57:34;;;;;;;6.40;2.80;;;;;;;13.84;71.35;97170.21;107672;1267;55973;-79
2022/06/15 05:00:10;;;;;;;4.20;2.10;;;;;;;13.75;71.34;97173.02;107666;1267;33011;-79
2022/06/15 05:02:41;;;;;;;4.30;2.40;;;;;;;13.61;70.78;97180.70;107344;1267;188183;-79
2022/06/15 05:05:13;;;;;;;5.00;2.10;;;;;;;13.49;70.75;97175.71;107591;1267;41008;-79
2022/06/15 05:07:45;;;;;;;3.50;2.00;;;;;;;13.40;70.79;97180.17;107226;1268;140824;-79
2022/06/15 05:10:21;;;;;;;2.80;2.20;;;;;;;13.35;70.87;97183.30;107236;1267;101645;-79
2022/06/15 05:12:53;;;;;;;3.80;2.30;;;;;;;13.30;71.23;97186.34;107109;1267;131406;-78
2022/06/15 05:15:24;;;;;;;6.00;2.20;;;;;;;13.25;71.33;97183.89;107475;1267;99916;-79
2022/06/15 05:17:56;;;;;;;5.00;2.10;;;;;;;13.18;71.41;97190.22;107471;1267;154121;-79
2022/06/15 05:20:27;;;;;;;3.40;2.50;;;;;;;13.06;71.10;97190.27;107602;1267;84440;-79
2022/06/15 05:22:58;;;;;;;5.60;2.40;;;;;;;12.98;71.62;97193.15;107725;1267;118247;-78
2022/06/15 05:25:29;;;;;;;4.50;2.10;;;;;;;12.93;71.85;97191.84;107394;1267;146963;-78
2022/06/15 05:28:01;;;;;;;4.10;2.40;;;;;;;12.97;72.32;97189.27;106578;1267;1571819;-79
2022/06/15 05:30:32;;;;;;;5.70;2.40;;;;;;;13.07;72.60;97189.66;107575;1267;99846;-79
2022/06/15 05:33:04;;;;;;;7.50;2.90;;;;;;;13.32;72.70;97187.59;107750;1267;38446;-79
2022/06/15 05:35:36;;;;;;;4.70;2.80;;;;;;;13.72;72.04;97183.45;107554;1267;131280;-78
2022/06/15 05:38:09;;;;;;;8.70;3.00;;;;;;;14.78;72.26;97185.83;107601;1270;35733;-78
2022/06/15 05:40:40;;;;;;;4.40;2.60;;;;;;;17.50;70.60;97181.93;107238;1267;163356;-79
2022/06/15 05:43:11;;;;;;;5.30;3.00;;;;;;;18.41;64.39;97179.27;107686;1267;48939;-78
2022/06/15 05:45:42;;;;;;;6.00;2.90;;;;;;;19.06;63.92;97183.46;107456;1267;144689;-79
2022/06/15 05:48:13;;;;;;;6.60;3.00;;;;;;;19.46;60.38;97183.80;107467;1267;93627;-79
2022/06/15 05:50:45;;;;;;;6.70;2.60;;;;;;;19.29;59.45;97189.98;106077;1267;2089949;-79
2022/06/15 05:53:16;;;;;;;5.70;3.20;;;;;;;21.07;60.00;97186.30;106939;1267;176751;-79
2022/06/15 05:55:47;;;;;;;5.60;2.90;;;;;;;23.52;56.43;97182.67;107611;1267;84910;-79
2022/06/15 05:58:19;;;;;;;5.40;2.50;;;;;;;24.66;52.96;97181.23;107562;1267;99957;-80
2022/06/15 06:00:50;;;;;;;5.30;2.80;;;;;;;24.85;50.07;97185.00;107584;1267;100033;-79
2022/06/15 06:03:21;;;;;;;5.10;2.40;;;;;;;25.32;49.32;97182.04;107456;1267;117782;-79
2022/06/15 06:05:53;;;;;;;6.50;2.80;;;;;;;24.45;47.04;97187.74;107570;1267;103271;-79
2022/06/15 06:08:24;;;;;;;4.70;2.30;;;;;;;22.89;47.25;97186.39;107461;1267;149488;-80
2022/06/15 06:10:55;;;;;;;5.70;2.80;;;;;;;22.11;48.00;97186.92;107733;1267;73730;-79
2022/06/15 06:13:27;;;;;;;6.30;1.90;;;;;;;21.79;48.31;97187.04;107355;1267;126446;-79
2022/06/15 06:15:58;;;;;;;3.60;1.70;;;;;;;22.84;48.55;97184.92;107590;1267;95024;-80
2022/06/15 06:18:30;;;;;;;4.50;2.00;;;;;;;24.36;47.34;97184.95;107539;1267;112292;-80
2022/06/15 06:21:01;;;;;;;5.80;2.00;;;;;;;26.14;45.67;97179.55;107484;1267;129038;-80
2022/06/15 06:23:33;;;;;;;4.40;1.70;;;;;;;28.68;44.03;97184.11;107566;1267;145368;-80
2022/06/15 06:26:05;;;;;;;3.80;1.40;;;;;;;30.57;40.12;97185.46;107714;1267;57160;-80
2022/06/15 06:28:40;;;;;;;4.60;1.60;;;;;;;32.05;37.89;97185.39;107728;1267;112225;-80
2022/06/15 06:31:12;;;;;;;3.40;1.60;;;;;;;31.09;35.72;97181.90;107629;1267;46613;-80
2022/06/15 06:33:43;;;;;;;4.80;1.70;;;;;;;30.80;35.72;97184.78;107413;1267;155323;-80
2022/06/15 06:36:20;;;;;;;4.00;1.60;;;;;;;31.84;35.15;97182.26;107432;1270;118328;-80
2022/06/15 06:38:51;;;;;;;5.30;1.80;;;;;;;32.42;33.24;97183.98;107429;1267;141402;-80
2022/06/15 06:41:25;;;;;;;3.60;1.60;;;;;;;33.82;34.01;97185.36;107461;1267;109325;-81
2022/06/15 06:43:59;;;;;;;3.60;1.60;;;;;;;35.73;32.71;97181.41;107483;1267;140094;-81
2022/06/15 06:46:30;;;;;;;4.30;1.70;;;;;;;37.38;30.89;97181.77;107422;1267;129118;-82
2022/06/15 06:49:02;;;;;;;5.80;2.00;;;;;;;38.05;28.13;97182.98;107613;1267;88435;-81
2022/06/15 06:51:34;;;;;;;2.00;1.30;;;;;;;36.69;26.34;97177.58;107472;1267;113475;-82
2022/06/15 06:54:07;;;;;;;2.90;1.50;;;;;;;35.57;25.73;97178.58;107742;1267;77340;-81
2022/06/15 06:56:39;;;;;;;4.80;1.70;;;;;;;35.56;27.21;97179.16;107280;1267;121299;-81
2022/06/15 06:59:12;;;;;;;3.30;1.60;;;;;;;36.80;27.24;97178.86;107478;1267;100350;-81
2022/06/15 07:01:45;;;;;;;3.70;1.50;;;;;;;38.06;26.12;97186.29;107498;1267;96173;-81
2022/06/15 07:04:19;;;;;;;3.20;1.40;;;;;;;38.40;25.50;97186.02;107669;1267;97756;-81
2022/06/15 07:06:51;;;;;;;4.40;1.80;;;;;;;39.02;25.14;97187.13;107749;1267;32846;-81
2022/06/15 07:09:22;;;;;;;4.60;1.50;;;;;;;40.06;24.48;97185.21;107578;1267;142995;-82
2022/06/15 07:11:53;;;;;;;3.90;1.30;;;;;;;40.63;24.11;97184.39;107796;1267;39044;-81
2022/06/15 07:14:24;;;;;;;3.80;1.60;;;;;;;41.20;23.50;97181.54;107530;1270;105245;-82
2022/06/15 07:16:56;;;;;;;3.60;1.40;;;;;;;41.07;23.16;97182.92;107514;1267;105360;-81
2022/06/15 07:19:27;;;;;;;2.80;1.40;;;;;;;41.18;22.05;97187.62;107505;1267;102697;-81
2022/06/15 07:21:58;;;;;;;2.80;1.40;;;;;;;40.91;22.13;97188.65;107424;1267;128460;-81
2022/06/15 07:24:43;;;;;;;3.60;1.30;;;;;;;40.01;21.01;97185.39;107523;1267;96117;-81
2022/06/15 07:27:15;;;;;;;3.70;1.40;;;;;;;38.18;21.64;97191.58;107328;1267;126585;-80
2022/06/15 07:29:46;;;;;;;3.20;1.50;;;;;;;36.85;21.70;97187.21;107509;1267;93164;-81
2022/06/15 07:32:19;;;;;;;2.70;1.20;;;;;;;35.29;22.44;97185.98;107510;1266;95689;-81
2022/06/15 07:34:50;;;;;;;3.30;1.40;;;;;;;33.88;22.63;97184.44;107595;1267;98642;-80
2022/06/15 07:37:21;;;;;;;2.70;1.60;;;;;;;33.99;24.39;97185.90;107440;1267;110178;-80
2022/06/15 07:39:52;;;;;;;6.70;1.60;;;;;;;36.12;24.62;97186.73;107573;1267;60477;-79
2022/06/15 07:42:24;;;;;;;3.60;1.50;;;;;;;38.33;23.65;97188.58;107475;1267;97826;-79
2022/06/15 07:44:55;;;;;;;2.80;1.60;;;;;;;39.58;23.02;97184.21;107518;1267;83200;-79
2022/06/15 07:50:16;;;;;;;4.10;1.90;;;;;;;39.25;20.40;97182.60;107546;1267;129633;-78
2022/06/15 07:52:50;;;;;;;3.20;1.40;;;;;;;35.80;21.19;97179.18;107676;1267;40883;-81
2022/06/15 07:55:26;;;;;;;4.80;1.40;;;;;;;34.88;23.25;97182.66;107613;1267;94905;-81
2022/06/15 07:57:58;;;;;;;6.60;1.80;;;;;;;35.47;22.54;97186.55;107713;1267;38333;-81
2022/06/15 08:00:30;;;;;;;2.90;1.70;;;;;;;34.61;23.43;97186.18;107602;1267;94897;-81
2022/06/15 08:03:01;;;;;;;8.00;2.60;;;;;;;34.14;23.56;97188.73;107683;1267;90967;-80
2022/06/15 08:05:36;;;;;;;6.10;2.20;;;;;;;32.35;23.84;97192.49;107486;1267;80710;-80
2022/06/15 08:08:12;;;;;;;4.10;1.90;;;;;;;29.61;25.23;97194.92;107578;1267;64589;-79
2022/06/15 08:10:44;;;;;;;4.60;2.00;;;;;;;29.23;26.56;97195.58;106043;1267;2123914;-79
2022/06/15 08:13:16;;;;;;;10.00;2.30;;;;;;;28.04;27.16;97194.80;107563;1267;165094;-79
2022/06/15 08:15:50;;;;;;;3.60;1.70;;;;;;;26.66;28.46;97194.45;107520;1267;96554;-79
2022/06/15 08:18:24;;;;;;;4.20;1.90;;;;;;;25.67;29.86;97197.00;107611;1267;32605;-79
2022/06/15 08:21:00;;;;;;;5.00;2.00;;;;;;;24.73;31.65;97199.61;107580;1267;59519;-79
2022/06/15 08:23:35;;;;;;;4.40;2.00;;;;;;;25.58;33.03;97195.07;107547;1269;69671;-80
2022/06/15 08:26:11;;;;;;;2.80;1.40;;;;;;;27.36;30.88;97190.29;107353;1267;167986;-80
2022/06/15 08:28:48;;;;;;;4.70;1.90;;;;;;;26.18;31.73;97188.23;107633;1267;44656;-79
2022/06/15 08:31:20;;;;;;;6.40;1.80;;;;;;;25.79;32.92;97183.05;107239;1267;160848;-80
2022/06/15 08:33:52;;;;;;;2.40;1.40;;;;;;;27.52;33.56;97184.59;107621;1267;94058;-80
2022/06/15 08:36:23;;;;;;;3.40;1.90;;;;;;;27.35;30.52;97185.10;107419;1267;128902;-80
2022/06/15 08:38:56;;;;;;;3.50;1.60;;;;;;;26.94;31.80;97188.40;107578;1267;126244;-80
2022/06/15 08:41:39;;;;;;;4.30;1.90;;;;;;;27.36;30.82;97190.55;107528;1267;99563;-80
2022/06/15 08:44:21;;;;;;;3.50;1.70;;;;;;;26.46;30.83;97190.88;107096;1268;151197;-79
2022/06/15 08:47:03;;;;;;;3.70;1.80;;;;;;;26.02;31.18;97192.11;107627;1267;42165;-79
2022/06/15 08:49:59;;;;;;;3.20;1.70;;;;;;;25.65;31.73;97190.46;105976;1268;1832122;-79
2022/06/15 08:52:38;;;;;;;3.60;1.50;;;;;;;25.33;31.50;97192.23;107619;1267;107032;-79
2022/06/15 08:55:25;;;;;;;4.00;1.80;;;;;;;25.10;31.98;97196.66;107358;1267;112038;-79
2022/06/15 08:58:02;;;;;;;4.20;1.70;;;;;;;24.98;32.44;97187.27;107594;1267;52315;-80
2022/06/15 09:00:37;;;;;;;6.60;2.20;;;;;;;24.88;32.95;97188.53;107218;1267;155881;-79
2022/06/15 09:03:22;;;;;;;5.30;1.70;;;;;;;24.69;34.01;97187.07;107755;1267;36372;-79
2022/06/15 09:06:05;;;;;;;6.80;2.30;;;;;;;24.85;34.62;97188.71;105894;1267;2013505;-79
2022/06/15 09:08:55;;;;;;;3.90;1.80;;;;;;;25.08;35.38;97190.60;107593;1267;119090;-80
2022/06/15 09:11:40;;;;;;;6.70;2.60;;;;;;;25.04;34.83;97193.61;106106;1267;1300793;-80
2022/06/15 09:14:23;;;;;;;3.60;1.60;;;;;;;24.58;34.12;97191.25;107394;1267;107253;-79
2022/06/15 09:17:03;;;;;;;5.30;1.80;;;;;;;24.18;34.37;97195.06;107132;1267;136739;-79
2022/06/15 09:19:37;;;;;;;6.00;2.10;;;;;;;23.88;34.43;97193.04;107756;1267;35928;-79
2022/06/15 09:22:12;;;;;;;5.80;2.20;;;;;;;23.52;35.90;97194.60;107360;1267;179135;-78
2022/06/15 09:24:49;;;;;;;3.70;1.90;;;;;;;23.50;36.58;97188.59;107696;1267;77684;-79
2022/06/15 09:27:25;;;;;;;7.00;2.10;;;;;;;23.50;36.09;97192.59;107656;1267;57076;-79
2022/06/15 09:30:00;;;;;;;6.00;2.00;;;;;;;23.02;36.21;97189.23;107410;1267;132207;-79
2022/06/15 09:32:35;;;;;;;4.20;1.90;;;;;;;22.34;36.78;97188.73;107653;1267;112150;-80
2022/06/15 09:35:13;;;;;;;4.20;2.00;;;;;;;22.13;37.19;97186.86;107529;1267;117378;-79
2022/06/15 09:37:49;;;;;;;3.60;1.50;;;;;;;22.14;37.80;97181.56;105932;1267;2040961;-78
2022/06/15 09:40:21;;;;;;;4.50;1.80;;;;;;;22.50;38.93;97179.70;107324;1265;197550;-79
2022/06/15 09:42:59;;;;;;;4.10;2.40;;;;;;;23.00;39.27;97178.05;107623;1267;31951;-79
2022/06/15 09:45:37;;;;;;;5.50;2.20;;;;;;;23.22;38.76;97179.66;107046;1267;207444;-79
2022/06/15 09:48:20;;;;;;;8.20;2.50;;;;;;;22.99;38.50;97179.20;107658;1267;45070;-78
2022/06/15 09:50:57;;;;;;;4.50;2.30;;;;;;;22.78;38.51;97178.77;106243;1267;1380379;-79
2022/06/15 09:53:42;;;;;;;6.40;2.30;;;;;;;22.50;38.56;97179.02;107496;1268;87722;-79
2022/06/15 09:56:17;;;;;;;5.60;2.20;;;;;;;22.03;38.38;97178.64;106999;1267;152276;-79
2022/06/15 09:58:54;;;;;;;6.60;1.90;;;;;;;21.76;39.29;97179.65;107226;1267;148074;-78
2022/06/15 10:01:28;;;;;;;4.70;2.00;;;;;;;22.02;38.30;97174.42;106122;1267;1190261;-79
2022/06/15 10:04:02;;;;;;;3.50;1.80;;;;;;;21.71;38.04;97172.85;107274;1267;120047;-78
2022/06/15 10:06:43;;;;;;;6.00;2.10;;;;;;;21.49;38.79;97168.95;107441;1267;85313;-79
2022/06/15 10:09:18;;;;;;;5.50;1.80;;;;;;;21.32;39.16;97175.41;107597;1267;38129;-78
2022/06/15 10:11:52;;;;;;;3.00;1.70;;;;;;;21.50;40.05;97177.23;105961;1267;1307360;-78
2022/06/15 10:14:28;;;;;;;5.60;1.80;;;;;;;21.74;39.38;97177.55;107149;1267;142995;-78
2022/06/15 10:17:06;;;;;;;4.40;2.20;;;;;;;21.98;39.41;97179.43;106152;1267;1760996;-78
2022/06/15 10:19:38;;;;;;;3.10;1.90;;;;;;;22.23;40.23;97175.41;107566;1267;35765;-77
2022/06/15 10:22:21;;;;;;;5.10;2.10;;;;;;;22.54;39.84;97178.73;107203;1267;156140;-78
2022/06/15 10:24:54;;;;;;;3.80;1.70;;;;;;;22.57;40.18;97172.04;107543;1267;92237;-78
2022/06/15 10:27:33;;;;;;;6.40;2.10;;;;;;;22.52;39.76;97164.02;107216;1267;140917;-78
2022/06/15 10:30:19;;;;;;;4.50;1.90;;;;;;;22.26;40.20;97159.84;107492;1267;85306;-78
2022/06/15 10:33:13;;;;;;;5.50;2.40;;;;;;;21.98;40.29;97158.14;107442;1267;135935;-79
2022/06/15 10:35:52;;;;;;;4.50;1.80;;;;;;;22.02;40.32;97158.16;107673;1267;36602;-78
2022/06/15 10:38:24;;;;;;;5.50;2.20;;;;;;;22.07;39.97;97155.88;107402;1267;131281;-78
2022/06/15 10:41:45;;;;;;;4.20;2.10;;;;;;;21.84;39.66;97155.06;107643;1267;36677;-78
2022/06/15 10:43:52;;;;;;;4.30;2.00;;;;;;;21.81;40.33;97159.06;106087;1267;1782866;-78
2022/06/15 10:46:23;;;;;;;4.70;2.10;;;;;;;22.02;39.80;97150.60;107711;1267;56700;-78
2022/06/15 10:48:57;;;;;;;5.70;1.90;;;;;;;21.99;39.43;97144.67;107609;1267;127524;-78
2022/06/15 10:51:39;;;;;;;5.30;1.90;;;;;;;21.73;39.84;97138.69;107628;1267;36197;-78
2022/06/15 10:54:24;;;;;;;3.80;1.60;;;;;;;21.81;40.03;97145.95;107360;1267;137574;-77
2022/06/15 11:02:47;;;;;;;4.30;2.00;;;;;;;21.69;38.42;97135.45;107461;1270;91380;-78
2022/06/15 11:05:22;;;;;;;3.60;1.90;;;;;;;21.71;38.15;97139.55;107309;1270;118663;-77
2022/06/15 11:07:57;;;;;;;7.30;2.10;;;;;;;22.05;39.54;97145.07;107317;1270;138886;-77
2022/06/15 11:10:32;;;;;;;3.60;2.00;;;;;;;22.45;38.62;97142.52;107485;1270;47031;-78
2022/06/15 11:13:07;;;;;;;3.10;1.90;;;;;;;22.70;38.73;97141.60;107315;1270;134870;-78
2022/06/15 11:18:38;;;;;;;3.60;1.80;;;;;;;23.16;39.73;97137.84;105985;1270;2058024;-78
2022/06/15 11:21:14;;;;;;;4.70;2.10;;;;;;;23.40;39.90;97136.05;107503;1269;112431;-78
2022/06/15 11:23:54;;;;;;;4.10;2.20;;;;;;;23.54;39.34;97128.30;107350;1270;98763;-78
2022/06/15 11:29:38;;;;;;;5.40;2.50;;;;;;;22.75;38.33;97126.13;107203;1270;156502;-78
2022/06/15 11:32:27;;;;;;;4.50;2.10;;;;;;;22.76;39.02;97129.41;106080;1270;2044751;-77
2022/06/15 11:35:07;;;;;;;4.20;2.00;;;;;;;22.80;39.17;97126.42;107519;1270;50553;-78
2022/06/15 11:37:46;;;;;;;4.50;2.20;;;;;;;22.99;39.86;97122.81;107395;1270;127964;-78
2022/06/15 11:40:23;;;;;;;4.60;2.00;;;;;;;23.21;40.10;97121.45;107547;1270;39909;-77
2022/06/15 11:42:55;;;;;;;3.80;2.10;;;;;;;23.43;39.63;97129.42;106923;1270;155327;-78
2022/06/15 11:45:33;;;;;;;6.60;2.30;;;;;;;23.46;40.12;97128.33;107078;1270;144075;-78
2022/06/15 11:48:19;;;;;;;4.80;1.90;;;;;;;23.47;38.85;97127.11;107340;1270;171111;-78
2022/06/15 11:50:57;;;;;;;4.60;1.90;;;;;;;23.45;39.52;97126.45;107494;1269;122048;-77
2022/06/15 11:53:37;;;;;;;4.40;2.10;;;;;;;23.05;37.83;97113.44;107301;1270;154437;-78
2022/06/15 11:56:13;;;;;;;;;;;;;;;22.20;38.99;97116.61;107577;1270;32708;-77
2022/06/15 11:58:55;;;;;;;4.70;2.00;;;;;;;22.05;40.35;97115.59;107351;1267;164245;-78
2022/06/15 12:01:41;;;;;;;4.30;1.90;;;;;;;22.35;41.79;97116.83;107570;1267;39509;-78
2022/06/15 12:04:43;;;;;;;2.80;1.80;;;;;;;22.67;40.14;97113.93;107472;1267;187980;-77
2022/06/15 12:07:33;;;;;;;5.00;2.20;;;;;;;22.66;39.55;97113.29;107319;1270;132566;-77
2022/06/15 12:10:14;;;;;;;4.20;2.10;;;;;;;22.35;38.99;97114.59;107727;1267;37964;-78
2022/06/15 12:12:50;;;;;;;4.30;2.30;;;;;;;22.21;39.58;97110.55;107549;1267;98374;-77
2022/06/15 12:15:40;;;;;;;5.20;2.30;;;;;;;22.32;39.98;97108.46;107575;1268;135718;-78